Time;durP1;ratioP1;P1;durP2;ratioP2;P2;SDS_P1;SDS_P2;PMS_P1;PMS_P2;Temp;Humidity;BMP_temperature;BMP_pressure;BME280_temperature;BME280_humidity;BME280_pressure;Samples;Min_cycle;Max_cycle;Signal;HPM_P1;HPM_P2
2022/08/27 00:00:07;;;;;;;10.93;4.00;;;;;;;19.85;54.64;95086.56;5045866;28;20124;-83
2022/08/27 00:02:34;;;;;;;9.38;3.88;;;;;;;19.79;55.21;95088.38;5047206;28;20025;-83
2022/08/27 00:05:01;;;;;;;9.90;3.90;;;;;;;19.75;55.36;95088.03;5048625;28;20108;-83
2022/08/27 00:07:26;;;;;;;9.45;3.30;;;;;;;19.82;55.28;95092.50;5046019;28;20025;-83
2022/08/27 00:09:52;;;;;;;7.57;3.72;;;;;;;19.81;55.30;95080.81;5045750;28;20031;-83
2022/08/27 00:12:17;;;;;;;6.80;3.53;;;;;;;19.76;55.13;95073.34;5044692;28;20025;-83
2022/08/27 00:14:43;;;;;;;7.47;3.88;;;;;;;19.75;55.58;95076.31;5045522;28;20025;-82
2022/08/27 00:17:08;;;;;;;8.25;4.10;;;;;;;19.67;55.50;95074.81;5045269;28;20025;-83
2022/08/27 00:19:35;;;;;;;9.80;4.03;;;;;;;19.66;55.85;95075.06;5044990;28;20220;-83
2022/08/27 00:22:00;;;;;;;10.80;3.80;;;;;;;19.68;55.89;95076.50;5045843;28;20067;-82
2022/08/27 00:24:26;;;;;;;8.20;3.60;;;;;;;19.67;55.66;95074.00;5044981;28;20110;-83
2022/08/27 00:26:52;;;;;;;10.52;3.78;;;;;;;19.61;56.34;95079.34;5045669;28;20104;-83
2022/08/27 00:29:18;;;;;;;8.80;3.45;;;;;;;19.64;56.49;95070.69;5044370;28;20044;-83
2022/08/27 00:31:44;;;;;;;7.45;3.40;;;;;;;19.66;56.15;95072.34;5045258;28;20082;-84
2022/08/27 00:34:09;;;;;;;10.52;3.83;;;;;;;19.65;56.05;95074.25;5044516;28;20017;-84
2022/08/27 00:36:35;;;;;;;10.40;3.35;;;;;;;19.63;55.66;95084.56;5006334;28;1113039;-84
2022/08/27 00:39:01;;;;;;;10.23;3.40;;;;;;;19.58;55.80;95081.72;5046195;28;20392;-84
2022/08/27 00:41:26;;;;;;;7.47;3.67;;;;;;;19.51;55.79;95084.59;5045385;28;20070;-84
2022/08/27 00:43:56;;;;;;;7.97;3.53;;;;;;;19.45;56.06;95089.09;5046191;28;20025;-84
2022/08/27 00:46:39;;;;;;;6.65;3.35;;;;;;;19.43;56.30;95085.81;5044934;28;20399;-84
2022/08/27 00:49:31;;;;;;;9.73;3.40;;;;;;;19.37;56.81;95086.75;5044466;28;20035;-84
2022/08/27 00:51:59;;;;;;;8.77;3.83;;;;;;;19.32;56.57;95082.06;5044349;28;20535;-83
2022/08/27 00:54:25;;;;;;;6.97;3.28;;;;;;;19.23;57.59;95080.78;5045808;28;20096;-84
2022/08/27 00:56:50;;;;;;;11.35;3.92;;;;;;;19.23;57.16;95078.06;5028379;28;20128;-84
2022/08/27 00:59:16;;;;;;;8.50;4.10;;;;;;;19.21;56.75;95088.34;5045358;28;20106;-83
2022/08/27 01:02:17;;;;;;;7.10;3.65;;;;;;;19.21;56.65;95081.03;5045293;28;20036;-84
2022/08/27 01:04:27;;;;;;;7.05;3.65;;;;;;;19.20;56.56;95081.28;5045512;28;20114;-83
2022/08/27 01:06:53;;;;;;;10.38;3.75;;;;;;;19.12;56.36;95080.56;5029187;28;20411;-84
2022/08/27 01:09:18;;;;;;;6.72;3.85;;;;;;;19.12;56.20;95087.91;5048058;28;20024;-84
2022/08/27 01:11:44;;;;;;;8.57;3.78;;;;;;;19.13;55.61;95084.13;5048057;28;20385;-83
2022/08/27 01:14:09;;;;;;;7.63;3.47;;;;;;;19.17;55.65;95079.84;5031771;28;20470;-84
2022/08/27 01:16:36;;;;;;;10.10;3.50;;;;;;;19.18;55.51;95077.97;5048930;28;20025;-84
2022/08/27 01:19:05;;;;;;;11.50;3.65;;;;;;;19.18;56.07;95070.63;5050048;28;20033;-83
2022/08/27 01:22:06;;;;;;;10.35;3.90;;;;;;;19.19;55.70;95077.72;5046828;28;20564;-84
2022/08/27 01:24:45;;;;;;;7.28;4.25;;;;;;;19.14;55.62;95081.16;5046227;28;20127;-83
2022/08/27 01:27:12;;;;;;;9.45;3.30;;;;;;;19.17;56.17;95088.00;5047989;28;20037;-84
2022/08/27 01:29:37;;;;;;;11.15;3.55;;;;;;;19.10;56.12;95082.69;5031397;28;20083;-84
2022/08/27 01:32:09;;;;;;;6.47;3.53;;;;;;;19.12;56.73;95077.84;5048602;28;20431;-84
2022/08/27 01:34:35;;;;;;;10.63;3.90;;;;;;;19.14;56.43;95078.44;5048314;28;20482;-83
2022/08/27 01:37:00;;;;;;;8.07;3.88;;;;;;;19.10;57.15;95077.25;5049166;28;20035;-83
2022/08/27 01:39:26;;;;;;;8.52;4.05;;;;;;;19.14;56.80;95081.16;5047943;28;20032;-83
2022/08/27 01:41:51;;;;;;;8.35;3.55;;;;;;;19.13;56.43;95079.53;5048503;28;20250;-83
2022/08/27 01:44:17;;;;;;;8.07;3.90;;;;;;;19.09;56.26;95086.47;5046736;28;20029;-83
2022/08/27 01:46:42;;;;;;;10.23;4.22;;;;;;;19.01;56.14;95081.38;5048576;28;20029;-83
2022/08/27 01:49:08;;;;;;;10.02;3.75;;;;;;;18.93;56.41;95082.59;5048776;28;20025;-83
2022/08/27 01:51:34;;;;;;;8.48;4.00;;;;;;;18.81;56.65;95096.19;5047771;28;20475;-83
2022/08/27 01:54:00;;;;;;;9.57;3.63;;;;;;;18.76;56.38;95088.75;5048475;28;20314;-84
2022/08/27 01:56:25;;;;;;;8.13;3.35;;;;;;;18.71;56.47;95096.78;5047822;28;20039;-82
2022/08/27 01:58:51;;;;;;;12.65;3.80;;;;;;;18.68;56.58;95093.72;5048648;28;20029;-83
2022/08/27 02:01:16;;;;;;;9.48;3.67;;;;;;;18.64;56.85;95091.47;5047583;28;20036;-82
2022/08/27 02:03:43;;;;;;;5.50;3.75;;;;;;;18.63;56.82;95095.25;5048310;28;20040;-82
2022/08/27 02:06:09;;;;;;;9.77;3.60;;;;;;;18.69;56.72;95093.47;5049556;28;20029;-84
2022/08/27 02:08:35;;;;;;;10.98;3.85;;;;;;;18.72;56.62;95100.31;5050044;28;20056;-84
2022/08/27 02:11:00;;;;;;;8.52;3.85;;;;;;;18.71;56.41;95099.50;5050603;28;20033;-83
2022/08/27 02:13:26;;;;;;;8.85;3.55;;;;;;;18.72;56.45;95095.72;5047959;28;20048;-83
2022/08/27 02:15:52;;;;;;;8.07;3.97;;;;;;;18.71;56.50;95090.53;5047934;28;20167;-83
2022/08/27 02:18:17;;;;;;;10.60;3.83;;;;;;;18.71;56.88;95095.97;5046322;28;20112;-83
2022/08/27 02:20:46;;;;;;;11.82;3.85;;;;;;;18.68;57.69;95099.16;5047804;28;20070;-82
2022/08/27 02:23:11;;;;;;;10.50;3.60;;;;;;;18.69;56.68;95101.63;5047256;28;20021;-83
2022/08/27 02:25:37;;;;;;;7.72;3.30;;;;;;;18.65;56.86;95100.47;5046655;28;20504;-83
2022/08/27 02:28:03;;;;;;;8.20;3.60;;;;;;;18.61;56.96;95096.53;5047720;28;20496;-83
2022/08/27 02:30:30;;;;;;;10.75;4.63;;;;;;;18.61;57.03;95100.09;5047219;28;20029;-83
2022/08/27 02:32:56;;;;;;;13.20;4.38;;;;;;;18.56;57.09;95097.25;5046780;28;20794;-83
2022/08/27 02:35:22;;;;;;;8.85;3.65;;;;;;;18.47;57.22;95101.38;5046620;28;20593;-83
2022/08/27 02:37:48;;;;;;;9.95;3.53;;;;;;;18.43;56.58;95098.31;5047824;28;20379;-83
2022/08/27 02:40:17;;;;;;;9.65;3.47;;;;;;;18.40;56.23;95107.75;5046766;28;20029;-83
2022/08/27 02:42:43;;;;;;;11.00;4.47;;;;;;;18.34;56.96;95102.44;5047664;28;20025;-83
2022/08/27 02:45:08;;;;;;;8.45;3.45;;;;;;;18.33;56.89;95111.66;5046956;28;20048;-83
2022/08/27 02:47:34;;;;;;;8.25;3.65;;;;;;;18.34;56.56;95103.28;5047303;28;20098;-83
2022/08/27 02:49:59;;;;;;;15.25;4.10;;;;;;;18.25;57.64;95110.13;5047333;28;20025;-83
2022/08/27 02:52:28;;;;;;;12.02;4.43;;;;;;;18.22;57.74;95105.13;5047795;28;20078;-83
2022/08/27 02:54:54;;;;;;;8.98;4.07;;;;;;;18.24;58.21;95116.59;5047903;28;20029;-84
2022/08/27 02:57:19;;;;;;;7.07;3.75;;;;;;;18.21;58.41;95109.75;5046836;28;20400;-83
2022/08/27 02:59:44;;;;;;;7.72;4.10;;;;;;;18.23;57.91;95107.59;5048167;28;20488;-83
2022/08/27 03:02:10;;;;;;;9.63;3.88;;;;;;;18.24;58.06;95103.00;5047032;28;20764;-83
2022/08/27 03:04:35;;;;;;;6.32;3.72;;;;;;;18.26;57.36;95111.75;5047249;28;20483;-82
2022/08/27 03:07:01;;;;;;;11.50;4.45;;;;;;;18.28;57.55;95115.06;5046805;28;20052;-84
2022/08/27 03:09:26;;;;;;;9.35;4.32;;;;;;;18.25;58.22;95116.34;5046894;28;20395;-83
2022/08/27 03:11:52;;;;;;;15.68;4.93;;;;;;;18.19;58.63;95117.28;5047448;28;20028;-83
2022/08/27 03:14:18;;;;;;;12.07;4.30;;;;;;;18.15;58.70;95118.81;5046058;28;20025;-84
2022/08/27 03:16:43;;;;;;;10.75;3.95;;;;;;;18.18;58.74;95121.06;5047164;28;20021;-82
2022/08/27 03:19:09;;;;;;;11.30;4.50;;;;;;;18.18;58.87;95117.53;5046138;28;20032;-83
2022/08/27 03:21:35;;;;;;;16.20;4.70;;;;;;;18.19;58.60;95117.28;5047050;28;20045;-83
2022/08/27 03:24:00;;;;;;;12.75;4.22;;;;;;;18.14;58.47;95120.69;5046252;28;20510;-82
2022/08/27 03:26:27;;;;;;;13.93;3.90;;;;;;;18.13;57.52;95119.06;5046367;28;20565;-82
2022/08/27 03:28:53;;;;;;;7.32;4.45;;;;;;;18.11;57.22;95120.31;5046843;28;20044;-83
2022/08/27 03:31:25;;;;;;;9.77;4.50;;;;;;;18.04;57.24;95121.22;5045847;28;20017;-83
2022/08/27 03:33:51;;;;;;;;;;;;;;;18.05;58.07;95122.06;5047738;28;20021;-83
2022/08/27 03:36:17;;;;;;;9.68;3.75;;;;;;;17.98;57.35;95124.03;5045410;28;19940;-84
2022/08/27 03:38:42;;;;;;;11.73;4.70;;;;;;;17.94;57.20;95131.84;5047144;28;20533;-82
2022/08/27 03:41:08;;;;;;;7.03;3.90;;;;;;;17.91;57.56;95130.41;5049420;28;20387;-82
2022/08/27 03:43:34;;;;;;;10.10;3.88;;;;;;;17.88;58.63;95135.44;5048005;28;20072;-83
2022/08/27 03:46:00;;;;;;;6.63;3.88;;;;;;;17.86;58.78;95134.88;5049380;28;20032;-83
2022/08/27 03:48:26;;;;;;;14.88;4.50;;;;;;;17.71;59.40;95133.41;5048191;28;20399;-83
2022/08/27 03:50:51;;;;;;;18.33;4.45;;;;;;;17.82;59.41;95130.94;5050891;28;20029;-82
2022/08/27 03:53:19;;;;;;;17.77;4.75;;;;;;;17.82;58.93;95137.22;5047855;28;20028;-83
2022/08/27 03:55:44;;;;;;;12.15;4.50;;;;;;;17.85;58.80;95135.91;5049302;28;20113;-83
2022/08/27 03:58:10;;;;;;;12.23;4.43;;;;;;;17.83;59.34;95135.34;5047696;28;20021;-83
2022/08/27 04:00:37;;;;;;;12.85;4.57;;;;;;;17.87;58.44;95140.06;5048551;28;20032;-84
2022/08/27 04:03:04;;;;;;;9.38;3.80;;;;;;;17.83;58.78;95141.56;5048085;28;20338;-83
2022/08/27 04:05:30;;;;;;;13.73;4.53;;;;;;;17.85;58.84;95142.16;5053471;28;20090;-82
2022/08/27 04:07:55;;;;;;;15.13;4.85;;;;;;;17.83;59.10;95151.59;5046946;28;20096;-83
2022/08/27 04:10:21;;;;;;;11.43;5.35;;;;;;;17.81;58.71;95154.56;5045882;28;20025;-82
2022/08/27 04:12:46;;;;;;;9.73;4.80;;;;;;;17.79;58.68;95148.53;5046694;28;20018;-83
2022/08/27 04:15:12;;;;;;;12.07;5.15;;;;;;;17.73;58.81;95153.00;5045660;28;20033;-83
2022/08/27 04:17:38;;;;;;;10.00;4.45;;;;;;;17.72;59.26;95161.31;5046655;28;20025;-84
2022/08/27 04:20:04;;;;;;;9.25;4.75;;;;;;;17.73;58.69;95165.72;5046051;28;20083;-84
2022/08/27 04:22:30;;;;;;;12.13;4.30;;;;;;;17.72;58.88;95155.91;5046019;28;20040;-83
2022/08/27 04:24:55;;;;;;;8.30;4.18;;;;;;;17.76;58.31;95165.25;5045544;28;20025;-83
2022/08/27 04:27:21;;;;;;;10.95;4.57;;;;;;;17.79;58.40;95170.22;5046422;28;20031;-83
2022/08/27 04:29:47;;;;;;;9.50;4.25;;;;;;;17.86;57.88;95162.00;5045708;28;20112;-84
2022/08/27 04:32:12;;;;;;;8.23;4.18;;;;;;;17.88;58.41;95160.69;5045556;28;20472;-83
2022/08/27 04:34:38;;;;;;;10.45;4.40;;;;;;;17.92;58.11;95161.91;5046992;28;20047;-83
2022/08/27 04:37:04;;;;;;;10.02;5.18;;;;;;;17.98;58.26;95160.16;5045696;28;20045;-83
2022/08/27 04:39:30;;;;;;;14.25;4.68;;;;;;;17.98;58.52;95160.16;5046183;28;20044;-83
2022/08/27 04:41:58;;;;;;;9.38;4.32;;;;;;;18.03;58.29;95162.16;5044719;28;20086;-83
2022/08/27 04:44:24;;;;;;;9.20;4.50;;;;;;;18.07;58.00;95162.53;5049615;28;20055;-83
2022/08/27 04:46:56;;;;;;;7.68;4.35;;;;;;;18.16;57.81;95156.59;5049225;28;20035;-83
2022/08/27 04:49:22;;;;;;;11.93;4.53;;;;;;;18.28;57.25;95167.44;5049484;28;20027;-83
2022/08/27 04:51:47;;;;;;;12.40;4.80;;;;;;;18.36;57.41;95173.63;5049383;28;20299;-83
2022/08/27 04:54:13;;;;;;;13.75;5.25;;;;;;;18.47;57.63;95171.97;5048943;28;20028;-83
2022/08/27 04:56:39;;;;;;;9.45;4.97;;;;;;;18.54;57.40;95169.97;5049206;28;20399;-84
2022/08/27 04:59:06;;;;;;;13.82;4.93;;;;;;;18.66;57.01;95170.00;5048861;28;20108;-83
2022/08/27 05:01:32;;;;;;;9.52;4.75;;;;;;;18.77;56.73;95171.06;5049601;28;20113;-83
2022/08/27 05:03:57;;;;;;;11.65;4.72;;;;;;;18.86;57.23;95180.50;5048310;28;20467;-83
2022/08/27 05:06:23;;;;;;;11.15;4.60;;;;;;;18.96;56.64;95185.34;5048897;28;20040;-82
2022/08/27 05:08:49;;;;;;;10.00;4.30;;;;;;;19.05;56.88;95180.41;5048442;28;20547;-84
2022/08/27 05:11:15;;;;;;;9.75;4.50;;;;;;;19.12;55.72;95180.31;5048299;28;20090;-82
2022/08/27 05:13:44;;;;;;;13.98;5.47;;;;;;;19.24;55.49;95180.28;5048955;28;20040;-82
2022/08/27 05:16:12;;;;;;;9.95;4.45;;;;;;;19.30;55.67;95186.69;5048438;28;20029;-82
2022/08/27 05:18:37;;;;;;;6.97;4.30;;;;;;;19.45;55.20;95183.44;5048664;28;20028;-82
2022/08/27 05:21:03;;;;;;;11.63;4.68;;;;;;;19.55;55.29;95180.97;5048514;28;20033;-83
2022/08/27 05:23:28;;;;;;;7.72;4.28;;;;;;;19.65;54.81;95183.06;5048743;28;20021;-83
2022/08/27 05:25:54;;;;;;;12.77;4.60;;;;;;;19.74;54.99;95172.63;5047972;28;20021;-83
2022/08/27 05:28:20;;;;;;;12.20;4.40;;;;;;;19.78;55.77;95179.22;5048968;28;20376;-83
2022/08/27 05:30:48;;;;;;;6.28;3.80;;;;;;;19.93;55.33;95183.31;5048530;28;20021;-83
2022/08/27 05:33:14;;;;;;;9.85;3.90;;;;;;;20.04;55.07;95187.91;5048145;28;20040;-83
2022/08/27 05:35:41;;;;;;;11.18;4.00;;;;;;;20.15;54.85;95182.66;5047866;28;20017;-83
2022/08/27 05:38:06;;;;;;;12.45;4.63;;;;;;;20.25;54.27;95186.41;5047659;28;20037;-82
2022/08/27 05:40:32;;;;;;;13.70;3.92;;;;;;;20.33;54.11;95185.16;5048457;28;20491;-83
2022/08/27 05:42:58;;;;;;;18.00;4.45;;;;;;;20.38;53.94;95181.72;5047499;28;20074;-83
2022/08/27 05:45:23;;;;;;;12.68;4.97;;;;;;;20.43;53.50;95179.06;5048324;28;20021;-84
2022/08/27 05:47:49;;;;;;;18.95;6.25;;;;;;;20.31;53.72;95181.88;5047976;28;20025;-83
2022/08/27 05:50:14;;;;;;;16.58;5.60;;;;;;;20.33;54.20;95182.44;5048074;28;20087;-82
2022/08/27 05:52:40;;;;;;;19.10;5.28;;;;;;;20.38;53.65;95182.53;5049763;28;20032;-83
2022/08/27 05:55:06;;;;;;;18.70;5.10;;;;;;;20.56;53.10;95185.28;5047407;28;20029;-83
2022/08/27 05:57:31;;;;;;;13.15;4.95;;;;;;;20.72;53.00;95191.78;5048446;28;20493;-83
2022/08/27 06:02:41;;;;;;;25.08;5.40;;;;;;;20.96;52.41;95187.03;5048393;28;20051;-82
2022/08/27 06:05:07;;;;;;;19.58;5.07;;;;;;;21.02;52.41;95192.56;5047411;28;20037;-83
2022/08/27 06:07:33;;;;;;;26.10;4.70;;;;;;;21.07;52.30;95185.28;5048185;28;20021;-83
2022/08/27 06:09:59;;;;;;;21.55;5.38;;;;;;;21.06;52.35;95188.25;5047987;28;20075;-83
2022/08/27 06:12:24;;;;;;;17.35;4.60;;;;;;;21.18;51.92;95188.16;5047098;28;20048;-84
2022/08/27 06:14:50;;;;;;;21.33;5.63;;;;;;;21.29;51.32;95189.97;5048029;28;20040;-84
2022/08/27 06:17:15;;;;;;;26.10;5.18;;;;;;;21.36;51.27;95196.06;5046941;28;20028;-84
2022/08/27 06:19:41;;;;;;;24.35;5.65;;;;;;;21.35;51.93;95197.16;5047618;28;20021;-84
2022/08/27 06:22:07;;;;;;;19.02;4.93;;;;;;;21.48;51.78;95195.13;5045455;28;20036;-83
2022/08/27 06:24:32;;;;;;;20.83;4.70;;;;;;;21.59;50.27;95196.91;5047549;28;20025;-83
2022/08/27 06:26:58;;;;;;;24.02;5.10;;;;;;;21.67;50.30;95192.91;5047020;28;20048;-83
2022/08/27 06:29:24;;;;;;;22.27;5.25;;;;;;;21.75;50.15;95186.16;5046973;28;20091;-84
2022/08/27 06:31:51;;;;;;;19.25;4.90;;;;;;;21.91;49.79;95180.94;5048002;28;20491;-84
2022/08/27 06:34:17;;;;;;;26.63;4.95;;;;;;;22.00;50.09;95194.94;5046838;28;20056;-85
2022/08/27 06:36:42;;;;;;;31.30;6.47;;;;;;;22.13;49.05;95188.28;5047278;28;20068;-84
2022/08/27 06:39:12;;;;;;;24.08;5.65;;;;;;;22.02;49.21;95187.34;5046568;28;20403;-84
2022/08/27 06:41:37;;;;;;;23.25;5.70;;;;;;;22.13;48.85;95188.28;5046986;28;20480;-83
2022/08/27 06:44:03;;;;;;;20.50;5.15;;;;;;;22.24;50.39;95192.75;5046759;28;20090;-83
2022/08/27 06:46:28;;;;;;;21.60;5.13;;;;;;;22.17;49.84;95194.84;5046821;28;20021;-83
2022/08/27 06:48:55;;;;;;;19.80;4.75;;;;;;;22.42;48.01;95190.75;5047293;28;20056;-83
2022/08/27 06:51:31;;;;;;;16.80;4.70;;;;;;;22.51;48.72;95189.19;5046078;28;20029;-83
2022/08/27 06:53:58;;;;;;;19.83;4.80;;;;;;;22.64;48.91;95182.50;5047092;28;20124;-83
2022/08/27 06:56:24;;;;;;;27.80;5.05;;;;;;;22.81;48.09;95178.81;5045996;28;20574;-84
2022/08/27 06:58:54;;;;;;;36.08;7.65;;;;;;;22.77;48.27;95181.25;5047016;28;20039;-83
2022/08/27 07:01:21;;;;;;;28.27;5.60;;;;;;;22.83;47.23;95179.34;5046410;28;20028;-83
2022/08/27 07:03:47;;;;;;;28.10;5.75;;;;;;;22.74;47.38;95183.66;5046478;28;20108;-82
2022/08/27 07:06:14;;;;;;;23.95;5.07;;;;;;;22.64;48.19;95182.50;5046186;28;20108;-82
2022/08/27 07:08:39;;;;;;;20.77;5.47;;;;;;;22.93;48.63;95175.88;5046452;28;20025;-84
2022/08/27 07:11:07;;;;;;;17.27;4.68;;;;;;;23.03;47.61;95178.69;5047037;28;20506;-82
2022/08/27 07:13:32;;;;;;;11.93;3.75;;;;;;;22.81;46.94;95182.34;5045945;28;20025;-82
2022/08/27 07:15:58;;;;;;;10.30;3.70;;;;;;;23.07;46.73;95179.00;5046639;28;20028;-82
2022/08/27 07:18:24;;;;;;;10.90;3.60;;;;;;;23.17;47.53;95175.50;5046083;28;20043;-82
2022/08/27 07:20:53;;;;;;;13.18;3.67;;;;;;;23.22;46.50;95175.53;5046334;28;20035;-83
2022/08/27 07:23:19;;;;;;;10.48;4.10;;;;;;;23.17;46.49;95173.59;5046784;28;20658;-83
2022/08/27 07:25:44;;;;;;;11.07;4.00;;;;;;;23.14;47.07;95178.75;5046022;28;20055;-83
2022/08/27 07:28:10;;;;;;;10.40;3.80;;;;;;;23.28;47.40;95171.72;5046654;28;20419;-82
2022/08/27 07:30:36;;;;;;;9.73;4.43;;;;;;;23.27;47.23;95186.50;5045415;28;20032;-82
2022/08/27 07:33:02;;;;;;;9.18;3.78;;;;;;;23.49;46.88;95182.81;5046293;28;20055;-83
2022/08/27 07:35:27;;;;;;;11.48;3.65;;;;;;;23.76;45.21;95192.81;5045482;28;20029;-83
2022/08/27 07:37:53;;;;;;;13.18;4.85;;;;;;;23.75;45.00;95188.41;5046130;28;20051;-84
2022/08/27 07:40:18;;;;;;;12.27;3.72;;;;;;;23.70;45.52;95182.91;5045629;28;20506;-84
2022/08/27 07:45:28;;;;;;;11.73;3.95;;;;;;;23.89;45.85;95185.19;5046129;28;20468;-83
2022/08/27 07:47:54;;;;;;;14.52;3.42;;;;;;;24.10;44.71;95185.25;5046128;28;20112;-83
2022/08/27 07:50:20;;;;;;;14.18;4.32;;;;;;;24.11;45.54;95187.72;5046124;28;20029;-83
2022/08/27 07:52:45;;;;;;;10.27;4.40;;;;;;;24.22;44.18;95185.03;5045294;28;20044;-84
2022/08/27 07:55:11;;;;;;;13.35;4.57;;;;;;;24.16;44.54;95179.56;5045890;28;20029;-83
2022/08/27 07:57:37;;;;;;;9.02;3.78;;;;;;;24.02;44.74;95190.16;5046430;28;20019;-83
2022/08/27 08:00:03;;;;;;;8.82;4.50;;;;;;;24.15;44.24;95185.28;5046831;28;20024;-83
2022/08/27 08:02:30;;;;;;;11.50;3.83;;;;;;;24.18;43.88;95176.53;5046062;28;20051;-84
2022/08/27 08:04:56;;;;;;;11.40;4.57;;;;;;;24.31;43.55;95191.66;5046132;28;20021;-83
2022/08/27 08:07:21;;;;;;;12.85;4.25;;;;;;;24.34;43.79;95185.63;5046894;28;20040;-83
2022/08/27 08:09:47;;;;;;;10.77;4.38;;;;;;;24.52;43.94;95187.00;5045818;28;20026;-83
2022/08/27 08:12:13;;;;;;;8.73;3.85;;;;;;;24.69;42.16;95181.28;5045937;28;20036;-83
2022/08/27 08:14:39;;;;;;;8.63;3.25;;;;;;;24.84;42.51;95171.41;5045169;28;20472;-83
2022/08/27 08:17:04;;;;;;;11.32;3.60;;;;;;;24.99;41.32;95169.78;5046820;28;20029;-83
2022/08/27 08:19:32;;;;;;;12.45;4.85;;;;;;;25.17;41.24;95163.69;5049412;28;20033;-84
2022/08/27 08:21:57;;;;;;;8.48;3.85;;;;;;;25.16;40.44;95170.31;5049521;28;20029;-83
2022/08/27 08:24:23;;;;;;;11.20;3.95;;;;;;;25.13;41.04;95167.28;5049922;28;20040;-83
2022/08/27 08:26:48;;;;;;;13.07;3.75;;;;;;;24.97;41.44;95170.06;5049163;28;20427;-83
2022/08/27 08:29:14;;;;;;;11.90;4.32;;;;;;;25.15;40.89;95165.91;5049936;28;20033;-83
2022/08/27 08:31:40;;;;;;;9.75;4.22;;;;;;;25.33;42.09;95160.91;5048743;28;20127;-83
2022/08/27 08:34:05;;;;;;;8.95;3.75;;;;;;;25.35;41.23;95155.97;5049847;28;20017;-82
2022/08/27 08:36:31;;;;;;;12.48;4.38;;;;;;;25.28;41.55;95155.44;5049088;28;20053;-82
2022/08/27 08:38:56;;;;;;;14.68;4.30;;;;;;;24.86;41.65;95157.41;5051797;28;20017;-82
2022/08/27 08:41:45;;;;;;;11.18;3.95;;;;;;;24.97;41.26;95164.56;5049594;28;20036;-83
2022/08/27 08:44:36;;;;;;;14.50;4.05;;;;;;;25.04;40.81;95165.09;5048058;28;20060;-85
2022/08/27 08:47:11;;;;;;;8.45;3.65;;;;;;;24.94;40.34;95165.09;5031686;28;20068;-84
2022/08/27 08:50:00;;;;;;;9.88;4.10;;;;;;;25.03;40.35;95160.72;5047887;28;20033;-84
2022/08/27 08:52:51;;;;;;;7.97;3.55;;;;;;;25.34;40.83;95159.84;5048195;28;20468;-83
2022/08/27 08:55:17;;;;;;;18.13;4.35;;;;;;;25.48;41.27;95159.22;5048796;28;20040;-84
2022/08/27 08:57:55;;;;;;;17.65;4.88;;;;;;;25.31;40.88;95157.66;5048444;28;20423;-84
2022/08/27 09:00:20;;;;;;;11.90;4.63;;;;;;;25.25;41.73;95158.72;5031924;28;20029;-83
2022/08/27 09:02:49;;;;;;;11.82;4.07;;;;;;;25.62;40.71;95156.72;5048796;28;20025;-83
2022/08/27 09:05:14;;;;;;;16.83;3.80;;;;;;;25.91;39.97;95153.31;5047591;28;20032;-84
2022/08/27 09:07:46;;;;;;;20.40;4.28;;;;;;;26.26;39.64;95153.41;5049374;28;20395;-84
2022/08/27 09:10:33;;;;;;;13.32;3.70;;;;;;;26.42;38.89;95149.47;5048420;28;20040;-83
2022/08/27 09:13:02;;;;;;;11.77;3.33;;;;;;;26.41;38.98;95149.75;5048720;28;20033;-84
2022/08/27 09:15:32;;;;;;;10.20;3.85;;;;;;;26.49;38.92;95143.66;5047196;28;20440;-83
2022/08/27 09:18:11;;;;;;;11.52;3.35;;;;;;;26.34;37.04;95138.28;5048275;28;20104;-84
2022/08/27 09:20:37;;;;;;;11.55;3.30;;;;;;;26.39;36.48;95141.78;5049054;28;20021;-84
2022/08/27 09:23:46;;;;;;;10.88;3.53;;;;;;;26.59;39.54;95139.19;5046855;28;20631;-84
2022/08/27 09:26:25;;;;;;;11.13;3.35;;;;;;;26.71;37.71;95139.66;5047987;28;20040;-84
2022/08/27 09:29:15;;;;;;;9.07;3.05;;;;;;;26.82;35.86;95136.78;5048626;28;20032;-83
2022/08/27 09:31:41;;;;;;;7.75;2.85;;;;;;;26.34;36.39;95141.03;5048583;28;20032;-83
2022/08/27 09:34:07;;;;;;;14.98;2.92;;;;;;;26.48;34.87;95128.28;5048893;28;20071;-83
2022/08/27 09:36:32;;;;;;;7.38;2.85;;;;;;;26.71;35.78;95130.56;5048338;28;20049;-85
2022/08/27 09:39:02;;;;;;;9.52;2.80;;;;;;;26.97;35.98;95120.13;5048436;28;20121;-83
2022/08/27 09:41:34;;;;;;;11.73;3.38;;;;;;;27.28;34.79;95122.63;5048479;28;20056;-86
2022/08/27 09:44:02;;;;;;;8.57;3.00;;;;;;;27.36;33.25;95128.56;5030331;28;20499;-83
2022/08/27 09:46:27;;;;;;;12.50;3.00;;;;;;;27.51;32.84;95131.16;5050006;28;20021;-82
2022/08/27 09:48:53;;;;;;;8.57;2.17;;;;;;;27.57;32.18;95131.13;5048318;28;20036;-82
2022/08/27 09:51:20;;;;;;;11.43;3.00;;;;;;;27.48;32.02;95126.25;5047259;28;20028;-83
2022/08/27 09:53:50;;;;;;;8.68;2.83;;;;;;;27.34;31.65;95125.31;5048017;28;20028;-83
2022/08/27 09:56:34;;;;;;;8.50;3.15;;;;;;;27.20;31.61;95126.00;5046829;28;20032;-83
2022/08/27 09:59:08;;;;;;;10.52;3.40;;;;;;;27.20;31.30;95120.50;5047989;28;20457;-83
2022/08/27 10:01:37;;;;;;;9.23;2.90;;;;;;;27.46;31.70;95117.47;5048036;28;20028;-83
2022/08/27 10:04:08;;;;;;;6.50;2.65;;;;;;;27.79;30.73;95127.00;5046858;28;20483;-83
2022/08/27 10:06:34;;;;;;;9.38;2.33;;;;;;;27.90;30.18;95120.25;5047822;28;20108;-83
2022/08/27 10:09:16;;;;;;;6.45;2.72;;;;;;;27.89;29.72;95126.91;5048159;28;20032;-82
2022/08/27 10:12:07;;;;;;;9.75;2.30;;;;;;;27.98;31.42;95114.09;5048113;28;20021;-83
2022/08/27 10:14:43;;;;;;;7.07;2.60;;;;;;;27.99;30.13;95106.63;5046292;28;20033;-83
2022/08/27 10:17:19;;;;;;;7.68;2.72;;;;;;;27.99;30.43;95114.88;5046630;28;20029;-83
2022/08/27 10:19:56;;;;;;;8.15;2.60;;;;;;;27.99;29.35;95112.13;5046064;28;20039;-82
2022/08/27 10:22:50;;;;;;;8.65;2.42;;;;;;;27.97;30.47;95114.38;5047709;28;20025;-82
2022/08/27 10:25:44;;;;;;;9.93;3.17;;;;;;;28.00;31.72;95113.78;5047705;28;20037;-83
2022/08/27 10:28:53;;;;;;;15.98;2.60;;;;;;;28.10;28.08;95112.81;5047089;28;20506;-84
2022/08/27 10:31:30;;;;;;;8.52;3.15;;;;;;;27.84;28.20;95113.19;5046946;28;20102;-83
2022/08/27 10:34:11;;;;;;;12.48;3.35;;;;;;;27.85;28.32;95107.38;5046626;28;20064;-84
2022/08/27 10:36:51;;;;;;;11.38;2.97;;;;;;;27.82;28.45;95110.72;5047032;28;20049;-82
2022/08/27 10:39:38;;;;;;;7.72;2.85;;;;;;;27.96;30.90;95110.81;5047027;28;20025;-84
2022/08/27 10:42:15;;;;;;;14.73;3.45;;;;;;;28.09;28.82;95117.50;5047260;28;20137;-82
2022/08/27 10:45:00;;;;;;;14.88;2.83;;;;;;;28.30;29.21;95108.09;5045930;28;20522;-84
2022/08/27 10:47:33;;;;;;;13.23;3.63;;;;;;;28.44;28.06;95109.03;5047235;28;20036;-84
2022/08/27 10:50:05;;;;;;;8.77;3.78;;;;;;;28.51;29.01;95111.41;5045779;28;20029;-83
2022/08/27 10:52:34;;;;;;;7.55;3.00;;;;;;;28.52;29.61;95113.03;5047157;28;20033;-86
2022/08/27 10:55:32;;;;;;;15.57;3.70;;;;;;;28.49;28.54;95116.38;5047328;28;20412;-83
2022/08/27 10:58:16;;;;;;;10.68;3.72;;;;;;;28.64;25.16;95107.06;5047095;28;20029;-83
2022/08/27 11:00:47;;;;;;;18.17;3.63;;;;;;;28.70;25.45;95107.78;5047352;28;20029;-83
2022/08/27 11:03:19;;;;;;;11.40;3.58;;;;;;;28.47;25.48;95102.09;5028983;28;20043;-83
2022/08/27 11:05:46;;;;;;;11.40;3.67;;;;;;;28.24;26.66;95102.69;5029274;28;20508;-82
2022/08/27 11:08:26;;;;;;;10.80;4.13;;;;;;;28.23;25.92;95106.56;5045107;28;20800;-85
2022/08/27 11:10:58;;;;;;;17.90;3.95;;;;;;;28.35;26.79;95108.06;5045267;28;20029;-83
2022/08/27 11:13:27;;;;;;;9.48;3.83;;;;;;;28.61;27.67;95105.72;5046671;28;20361;-84
2022/08/27 11:15:52;;;;;;;10.73;3.70;;;;;;;28.73;26.84;95098.91;5046236;28;20036;-83
2022/08/27 11:18:24;;;;;;;10.13;3.63;;;;;;;28.94;26.90;95095.81;5045394;28;20025;-82
2022/08/27 11:21:00;;;;;;;;;;;;;;;29.03;28.54;95099.53;5045181;28;20033;-84
2022/08/27 11:23:29;;;;;;;7.07;3.15;;;;;;;29.06;28.66;95093.38;5044907;28;19920;-83
2022/08/27 11:26:02;;;;;;;14.98;4.15;;;;;;;28.92;27.60;95087.81;5045245;28;20075;-84
2022/08/27 11:28:46;;;;;;;12.02;3.78;;;;;;;29.06;27.78;95081.53;5045905;28;20104;-83
2022/08/27 11:31:29;;;;;;;11.48;3.55;;;;;;;29.05;28.32;95085.41;5029303;28;20047;-84
2022/08/27 11:34:06;;;;;;;12.43;3.42;;;;;;;29.36;27.53;95076.53;5045076;28;20068;-83
2022/08/27 11:36:47;;;;;;;8.25;3.53;;;;;;;29.44;25.19;95075.00;5046583;28;20103;-83
2022/08/27 11:39:37;;;;;;;8.15;3.20;;;;;;;29.44;26.47;95067.53;5047024;28;20033;-84
2022/08/27 11:42:32;;;;;;;7.55;3.20;;;;;;;29.43;25.47;95074.19;5046562;28;20415;-82